Wetterdaten: Woche 24.12.12 - 30.12.12 (KW52)
Datum Zeit Temp. A. Feuchte A. Luftdruck Regen Wind Richtung Taupunkt Windchill Windben
24.12.2012 00:00 0,7 C 80 % 1016,9 hPa 1,0 l/m 0,1 km/h N -2,3 C 0,7 C 2,0 km/h
24.12.2012 01:00 0,7 C 80 % 1016,4 hPa 0,5 l/m 2,9 km/h N -2,3 C 0,7 C 9,7 km/h
24.12.2012 02:00 0,9 C 80 % 1016,8 hPa 0,5 l/m 1,5 km/h N -2,2 C 0,9 C 7,6 km/h
24.12.2012 03:00 1,1 C 80 % 1016,5 hPa 0,3 l/m 0,7 km/h N -2,0 C 1,1 C 5,2 km/h
24.12.2012 04:00 0,8 C 80 % 1016,4 hPa 0,3 l/m 0,4 km/h N -2,2 C 0,8 C 3,2 km/h
24.12.2012 05:00 0,4 C 80 % 1016,3 hPa 0,0 l/m 1,3 km/h N -2,6 C 0,4 C 6,0 km/h
24.12.2012 06:00 0,2 C 80 % 1016,4 hPa 0,0 l/m 1,3 km/h N -2,9 C 0,2 C 6,4 km/h
24.12.2012 07:00 0,1 C 80 % 1016,7 hPa 0,0 l/m 2,2 km/h N -3,0 C 0,1 C 6,8 km/h
24.12.2012 08:00 0,1 C 80 % 1016,7 hPa 0,0 l/m 1,0 km/h N -3,0 C 0,1 C 5,2 km/h
24.12.2012 09:00 0,2 C 80 % 1016,8 hPa 0,0 l/m 1,8 km/h N -2,9 C 0,2 C 7,6 km/h
24.12.2012 10:00 0,3 C 80 % 1017,1 hPa 0,3 l/m 2,1 km/h N -2,8 C 0,3 C 7,6 km/h
24.12.2012 11:00 0,5 C 79 % 1016,8 hPa 0,5 l/m 1,6 km/h N -2,8 C 0,5 C 6,0 km/h
24.12.2012 12:00 0,7 C 79 % 1016,4 hPa 0,5 l/m 0,9 km/h N -2,5 C 0,7 C 5,2 km/h
24.12.2012 13:00 0,9 C 79 % 1015,8 hPa 0,5 l/m 1,9 km/h N -2,3 C 0,9 C 6,8 km/h
24.12.2012 14:00 1,0 C 79 % 1015,5 hPa 0,5 l/m 2,7 km/h N -2,2 C 1,0 C 8,0 km/h
24.12.2012 15:00 0,9 C 79 % 1015,5 hPa 0,3 l/m 3,9 km/h N -2,3 C 0,9 C 12,1 km/h
24.12.2012 16:00 0,7 C 79 % 1015,6 hPa 0,0 l/m 4,3 km/h N -2,5 C 0,7 C 12,1 km/h
24.12.2012 17:00 0,4 C 79 % 1015,6 hPa 0,3 l/m 5,4 km/h N -2,8 C 0,4 C 13,3 km/h
24.12.2012 18:00 0,4 C 79 % 1015,5 hPa 0,0 l/m 4,8 km/h N -2,8 C 0,4 C 13,3 km/h
24.12.2012 19:00 0,3 C 79 % 1015,4 hPa 0,0 l/m 4,7 km/h N -2,9 C 0,3 C 14,9 km/h
24.12.2012 20:00 0,3 C 79 % 1015,1 hPa 0,0 l/m 3,8 km/h N -2,9 C 0,3 C 10,1 km/h
24.12.2012 21:00 0,2 C 79 % 1014,9 hPa 0,0 l/m 4,6 km/h N -3,0 C 0,2 C 12,5 km/h
24.12.2012 22:00 0,2 C 79 % 1014,7 hPa 0,0 l/m 2,8 km/h N -3,1 C 0,2 C 8,0 km/h
24.12.2012 23:00 0,2 C 79 % 1014,8 hPa 0,0 l/m 2,0 km/h N -3,1 C 0,2 C 7,2 km/h
25.12.2012 00:00 0,2 C 78 % 1014,5 hPa 0,0 l/m 1,1 km/h N -3,2 C 0,2 C 5,6 km/h
25.12.2012 01:00 0,2 C 78 % 1014,3 hPa 0,0 l/m 1,4 km/h N -3,2 C 0,2 C 6,0 km/h
25.12.2012 02:00 0,3 C 78 % 1014,2 hPa 0,0 l/m 2,1 km/h N -3,1 C 0,3 C 7,2 km/h
25.12.2012 03:00 0,3 C 78 % 1013,7 hPa 0,0 l/m 3,2 km/h N -3,1 C 0,3 C 10,1 km/h
25.12.2012 04:00 0,1 C 78 % 1013,5 hPa 0,0 l/m 2,8 km/h N -3,3 C 0,1 C 9,3 km/h
25.12.2012 05:00 0,1 C 78 % 1013,3 hPa 0,3 l/m 2,7 km/h N -3,3 C 0,1 C 8,9 km/h
25.12.2012 06:00 0,1 C 78 % 1013,0 hPa 0,0 l/m 3,2 km/h N -3,3 C 0,1 C 9,7 km/h
25.12.2012 07:00 0,1 C 78 % 1012,9 hPa 0,0 l/m 2,1 km/h N -3,3 C 0,1 C 7,6 km/h
25.12.2012 08:00 0,2 C 78 % 1012,8 hPa 0,0 l/m 2,3 km/h N -3,2 C 0,2 C 7,6 km/h
25.12.2012 09:00 0,3 C 78 % 1012,3 hPa 0,0 l/m 4,2 km/h N -3,0 C 0,3 C 10,9 km/h
25.12.2012 10:00 0,6 C 78 % 1011,9 hPa 0,0 l/m 4,1 km/h N -2,8 C 0,6 C 12,5 km/h
25.12.2012 11:00 0,8 C 78 % 1011,3 hPa 0,3 l/m 2,0 km/h N -2,6 C 0,8 C 7,6 km/h
25.12.2012 12:00 0,9 C 78 % 1011,9 hPa 0,5 l/m 2,2 km/h N -2,5 C 0,9 C 8,1 km/h
25.12.2012 13:00 1,0 C 78 % 1011,3 hPa 0,0 l/m 1,9 km/h N -2,4 C 1,0 C 6,0 km/h
25.12.2012 14:00 1,1 C 78 % 1011,3 hPa 0,3 l/m 0,2 km/h N -2,3 C 1,1 C 2,4 km/h
25.12.2012 15:00 1,2 C 78 % 1011,0 hPa 0,3 l/m 0,0 km/h N -2,2 C 1,2 C 0,0 km/h
25.12.2012 16:00 1,2 C 78 % 1011,6 hPa 0,0 l/m 0,2 km/h N -2,2 C 1,2 C 2,0 km/h
25.12.2012 17:00 1,1 C 78 % 1011,6 hPa 0,0 l/m 0,0 km/h N -2,3 C 1,1 C 0,8 km/h
25.12.2012 18:00 1,0 C 78 % 1011,5 hPa 0,0 l/m 0,7 km/h N -2,4 C 1,0 C 4,4 km/h
25.12.2012 19:00 0,8 C 78 % 1012,0 hPa 0,0 l/m 1,3 km/h N -2,6 C 0,8 C 6,4 km/h
25.12.2012 20:00 0,6 C 78 % 1012,6 hPa 0,0 l/m 1,6 km/h N -2,8 C 0,6 C 6,8 km/h
25.12.2012 21:00 0,3 C 78 % 1012,8 hPa 0,0 l/m 1,0 km/h N -3,0 C 0,3 C 6,4 km/h
25.12.2012 22:00 0,3 C 78 % 1012,8 hPa 0,0 l/m 0,4 km/h N -3,1 C 0,3 C 3,2 km/h
25.12.2012 23:00 0,2 C 78 % 1013,5 hPa 0,0 l/m 1,8 km/h N -3,2 C 0,2 C 6,4 km/h
26.12.2012 00:00 0,5 C 78 % 1014,3 hPa 0,0 l/m 3,6 km/h N -2,9 C 0,5 C 10,9 km/h
26.12.2012 01:00 0,6 C 78 % 1014,7 hPa 0,0 l/m 4,1 km/h N -2,8 C 0,6 C 12,5 km/h
26.12.2012 02:00 0,2 C 78 % 1015,2 hPa 0,0 l/m 0,4 km/h N -3,1 C 0,2 C 2,4 km/h
26.12.2012 03:00 -0,2 C 79 % 1015,1 hPa 0,0 l/m 1,2 km/h N -3,5 C -0,2 C 5,6 km/h
26.12.2012 04:00 0,3 C 78 % 1015,2 hPa 0,0 l/m 2,8 km/h N -3,1 C 0,3 C 8,4 km/h
26.12.2012 05:00 0,2 C 78 % 1015,0 hPa 0,0 l/m 0,3 km/h N -3,2 C 0,2 C 2,0 km/h
26.12.2012 06:00 0,2 C 78 % 1014,9 hPa 0,0 l/m 0,0 km/h N -3,2 C 0,2 C 0,0 km/h
26.12.2012 07:00 0,0 C 78 % 1014,8 hPa 0,0 l/m 0,0 km/h N -3,4 C 0,0 C 0,0 km/h
26.12.2012 08:00 0,3 C 78 % 1014,8 hPa 0,0 l/m 0,0 km/h N -3,1 C 0,3 C 0,4 km/h
26.12.2012 09:00 0,8 C 78 % 1015,0 hPa 0,0 l/m 0,4 km/h N -2,5 C 0,8 C 2,8 km/h
26.12.2012 10:00 1,6 C 77 % 1015,6 hPa 0,0 l/m 0,2 km/h N -1,9 C 1,6 C 1,6 km/h
26.12.2012 11:00 2,3 C 77 % 1015,5 hPa 0,0 l/m 0,0 km/h N -1,4 C 2,3 C 0,0 km/h
26.12.2012 12:00 2,8 C 77 % 1015,2 hPa 0,0 l/m 0,3 km/h N -0,8 C 2,8 C 3,6 km/h
26.12.2012 13:00 3,3 C 77 % 1014,8 hPa 0,0 l/m 0,0 km/h N -0,3 C 3,3 C 1,2 km/h
26.12.2012 14:00 3,7 C 77 % 1014,8 hPa 0,0 l/m 0,1 km/h N 0,0 C 3,7 C 2,4 km/h
26.12.2012 15:00 4,6 C 77 % 1014,8 hPa 0,0 l/m 3,1 km/h N 0,9 C 4,3 C 13,3 km/h
26.12.2012 16:00 7,8 C 81 % 1014,6 hPa 0,0 l/m 6,6 km/h N 4,7 C 7,4 C 20,1 km/h
26.12.2012 17:00 8,6 C 76 % 1014,7 hPa 0,0 l/m 4,3 km/h N 4,6 C 8,3 C 18,9 km/h
26.12.2012 18:00 9,4 C 68 % 1015,1 hPa 0,0 l/m 14,8 km/h N 3,9 C 4,6 C 35,4 km/h
26.12.2012 19:00 9,1 C 67 % 1015,6 hPa 0,0 l/m 14,1 km/h N 3,3 C 4,4 C 31,8 km/h
26.12.2012 20:00 8,9 C 65 % 1015,8 hPa 0,3 l/m 16,2 km/h N 2,7 C 3,4 C 38,2 km/h
26.12.2012 21:00 8,8 C 63 % 1016,6 hPa 0,0 l/m 16,0 km/h N 2,1 C 3,2 C 36,2 km/h
26.12.2012 22:00 8,1 C 66 % 1017,3 hPa 0,0 l/m 11,2 km/h N 2,1 C 5,0 C 30,6 km/h
26.12.2012 23:00 7,7 C 67 % 1017,5 hPa 0,0 l/m 6,3 km/h N 1,9 C 7,3 C 20,5 km/h
27.12.2012 00:00 7,3 C 67 % 1017,1 hPa 0,0 l/m 3,8 km/h N 1,6 C 7,3 C 12,5 km/h
27.12.2012 01:00 7,1 C 66 % 1016,5 hPa 0,0 l/m 2,7 km/h N 1,3 C 7,1 C 11,3 km/h
27.12.2012 02:00 7,5 C 64 % 1016,7 hPa 0,0 l/m 2,7 km/h N 1,1 C 7,5 C 14,9 km/h
27.12.2012 03:00 7,1 C 64 % 1016,6 hPa 0,0 l/m 1,4 km/h N 0,7 C 7,1 C 8,8 km/h
27.12.2012 04:00 6,5 C 65 % 1016,2 hPa 0,0 l/m 1,2 km/h N 0,5 C 6,5 C 8,0 km/h
27.12.2012 05:00 4,8 C 68 % 1015,8 hPa 0,0 l/m 0,7 km/h N -0,5 C 4,8 C 4,0 km/h
27.12.2012 06:00 1,8 C 77 % 1015,5 hPa 0,0 l/m 0,1 km/h N -1,8 C 1,8 C 2,0 km/h
27.12.2012 07:00 1,8 C 83 % 1015,1 hPa 0,0 l/m 0,1 km/h N -0,8 C 1,8 C 3,2 km/h
27.12.2012 08:00 1,8 C 83 % 1014,7 hPa 0,0 l/m 0,1 km/h N -0,8 C 1,8 C 2,0 km/h
27.12.2012 09:00 1,9 C 85 % 1014,1 hPa 0,0 l/m 0,2 km/h N -0,4 C 1,9 C 3,2 km/h
27.12.2012 10:00 3,4 C 84 % 1014,2 hPa 0,0 l/m 1,2 km/h N 0,9 C 3,4 C 5,6 km/h
27.12.2012 11:00 5,1 C 79 % 1013,8 hPa 0,0 l/m 0,6 km/h N 1,8 C 5,1 C 4,0 km/h
27.12.2012 12:00 9,6 C 65 % 1013,1 hPa 0,0 l/m 6,5 km/h N 3,2 C 9,0 C 20,5 km/h
27.12.2012 13:00 11,3 C 60 % 1011,3 hPa 0,0 l/m 7,9 km/h N 3,9 C 10,1 C 20,5 km/h
27.12.2012 14:00 11,8 C 51 % 1010,0 hPa 0,0 l/m 4,9 km/h N 2,0 C 11,8 C 16,5 km/h
27.12.2012 15:00 10,1 C 56 % 1009,7 hPa 0,0 l/m 2,5 km/h N 1,8 C 10,1 C 9,6 km/h
27.12.2012 16:00 8,1 C 65 % 1009,3 hPa 0,0 l/m 0,9 km/h N 1,8 C 8,1 C 5,6 km/h
27.12.2012 17:00 5,7 C 72 % 1009,0 hPa 0,0 l/m 0,0 km/h N 0,9 C 5,7 C 1,6 km/h
27.12.2012 18:00 4,5 C 79 % 1009,2 hPa 0,0 l/m 0,3 km/h N 1,2 C 4,5 C 2,4 km/h
27.12.2012 19:00 4,3 C 81 % 1009,2 hPa 0,0 l/m 0,2 km/h N 1,3 C 4,3 C 2,4 km/h
27.12.2012 20:00 4,1 C 82 % 1009,1 hPa 0,0 l/m 0,3 km/h N 1,3 C 4,1 C 3,2 km/h
27.12.2012 21:00 3,1 C 82 % 1009,5 hPa 0,0 l/m 0,2 km/h N 0,4 C 3,1 C 2,8 km/h
27.12.2012 22:00 1,8 C 84 % 1009,8 hPa 0,0 l/m 0,6 km/h N -0,6 C 1,8 C 5,2 km/h
27.12.2012 23:00 2,6 C 83 % 1010,0 hPa 0,0 l/m 3,7 km/h N 0,1 C 1,9 C 15,3 km/h
28.12.2012 00:00 8,1 C 79 % 1010,7 hPa 0,3 l/m 12,6 km/h N 4,6 C 4,1 C 30,6 km/h
28.12.2012 01:00 8,4 C 70 % 1010,3 hPa 0,0 l/m 17,5 km/h N 3,2 C 2,4 C 39,5 km/h
28.12.2012 02:00 8,4 C 70 % 1011,2 hPa 0,0 l/m 12,0 km/h N 3,3 C 4,9 C 30,6 km/h
28.12.2012 03:00 8,6 C 69 % 1011,6 hPa 0,0 l/m 13,2 km/h N 3,1 C 4,3 C 33,0 km/h
28.12.2012 04:00 8,6 C 68 % 1012,1 hPa 0,0 l/m 14,2 km/h N 3,0 C 3,8 C 33,0 km/h
28.12.2012 05:00 8,2 C 70 % 1013,1 hPa 0,0 l/m 14,5 km/h N 3,1 C 3,2 C 35,8 km/h
28.12.2012 06:00 7,9 C 72 % 1014,2 hPa 0,0 l/m 11,7 km/h N 3,1 C 4,3 C 32,6 km/h
28.12.2012 07:00 7,7 C 72 % 1015,0 hPa 0,0 l/m 14,2 km/h N 3,0 C 2,8 C 33,0 km/h
28.12.2012 08:00 7,0 C 78 % 1016,4 hPa 0,0 l/m 17,3 km/h N 3,3 C 0,4 C 35,8 km/h
28.12.2012 09:00 5,9 C 82 % 1018,9 hPa 0,3 l/m 12,7 km/h N 3,0 C 1,5 C 29,0 km/h
28.12.2012 10:00 5,2 C 84 % 1021,6 hPa 0,5 l/m 11,7 km/h N 2,7 C 1,2 C 25,8 km/h
28.12.2012 11:00 3,3 C 85 % 1023,6 hPa 2,1 l/m 10,6 km/h N 1,0 C -0,2 C 22,5 km/h
28.12.2012 12:00 3,5 C 84 % 1025,0 hPa 1,0 l/m 8,6 km/h N 1,1 C 1,6 C 20,1 km/h
28.12.2012 13:00 4,4 C 84 % 1025,7 hPa 0,0 l/m 10,6 km/h N 1,9 C 1,0 C 25,4 km/h
28.12.2012 14:00 4,4 C 80 % 1026,8 hPa 0,0 l/m 10,3 km/h N 1,1 C 1,2 C 23,3 km/h
28.12.2012 15:00 4,0 C 78 % 1027,9 hPa 0,0 l/m 9,9 km/h N 0,5 C 1,1 C 23,7 km/h
28.12.2012 16:00 3,3 C 78 % 1028,8 hPa 0,0 l/m 8,7 km/h N -0,3 C 1,2 C 20,9 km/h
28.12.2012 17:00 2,6 C 78 % 1030,1 hPa 0,0 l/m 6,8 km/h N -1,0 C 2,2 C 17,7 km/h
28.12.2012 18:00 2,0 C 77 % 1030,9 hPa 0,0 l/m 5,5 km/h N -1,6 C 1,8 C 14,1 km/h
28.12.2012 19:00 1,5 C 79 % 1031,6 hPa 0,0 l/m 1,6 km/h N -1,8 C 1,5 C 6,8 km/h
28.12.2012 20:00 1,1 C 79 % 1032,1 hPa 0,0 l/m 1,1 km/h N -2,1 C 1,1 C 7,2 km/h
28.12.2012 21:00 0,1 C 81 % 1032,4 hPa 0,0 l/m 0,5 km/h N -2,8 C 0,1 C 4,8 km/h
Min-Datum _ 26.12.12 27.12.12 27.12.12 - 24.12.12 - 26.12.12 28.12.12 24.12.12
_ Min-Zeit 03:15 14:15 17:45 - 00:00 - 03:15 11:15 00:00
Minimum _ -0,5 C 48 % 1008,8 hPa - 0,0 km/h - -3,6 C -1,1 C 0,0 km/h
Max-Datum _ 27.12.12 26.12.12 28.12.12 28.12.12 28.12.12 - 26.12.12 27.12.12 28.12.12
_ Max-Zeit 14:15 16:30 21:15 11:15 01:30 - 16:30 14:15 01:30
Maximum _ 12,6 C 86 % 1032,5 hPa 2,1 l/m 20,5 km/h
N
- 5,8 C 12,6 C 48,3 km/h
N
Durchschnitt _ 3,1 C 76 % 1015,5 hPa #11,4 l/m 4,0 km/h N -0,8 C 2,2 C 11,7 km/h